Time;durP1;ratioP1;P1;durP2;ratioP2;P2;SDS_P1;SDS_P2;PMS_P1;PMS_P2;Temp;Humidity;BMP_temperature;BMP_pressure;BME280_temperature;BME280_humidity;BME280_pressure;Samples;Min_cycle;Max_cycle;Signal;HPM_P1;HPM_P2
2022/09/14 00:01:26;;;;;;;6.85;2.75;;;;;;;15.74;61.64;100993.03;5065143;28;20078;-49
2022/09/14 00:04:05;;;;;;;1.60;1.30;;;;;;;15.79;61.63;100996.78;5065813;28;21438;-47
2022/09/14 00:06:37;;;;;;;6.70;1.55;;;;;;;15.77;61.55;101005.97;5064946;28;20043;-50
2022/09/14 00:09:16;;;;;;;6.07;1.65;;;;;;;15.75;61.73;100994.66;5069875;28;20531;-48
2022/09/14 00:11:50;;;;;;;3.38;1.63;;;;;;;15.80;61.77;101003.78;5048284;28;20404;-48
2022/09/14 00:14:22;;;;;;;7.93;2.22;;;;;;;15.68;61.68;100992.72;5054776;28;20051;-47
2022/09/14 00:16:55;;;;;;;9.77;1.52;;;;;;;15.70;61.89;100992.56;5065738;28;20047;-49
2022/09/14 00:19:29;;;;;;;3.17;1.67;;;;;;;15.74;61.85;100993.03;5068796;28;20047;-49
2022/09/14 00:22:02;;;;;;;3.45;1.50;;;;;;;15.63;61.93;100965.78;5071310;28;20243;-45
2022/09/14 00:24:35;;;;;;;;;;;;;;;15.77;61.72;100987.34;5075087;28;20051;-50
2022/09/14 00:27:09;;;;;;;5.13;1.70;;;;;;;15.68;61.84;100975.94;5072645;28;19922;-51
2022/09/14 00:29:41;;;;;;;3.95;2.30;;;;;;;15.78;61.84;100983.66;5071159;28;20039;-50
2022/09/14 00:32:14;;;;;;;5.20;1.70;;;;;;;15.79;61.64;100975.47;5077607;28;20043;-51
2022/09/14 00:34:48;;;;;;;4.50;1.38;;;;;;;15.79;61.77;100970.16;5073068;28;20407;-49
2022/09/14 00:37:21;;;;;;;11.90;1.70;;;;;;;15.80;61.53;100963.84;5074080;28;20078;-48
2022/09/14 00:39:53;;;;;;;3.83;1.75;;;;;;;15.86;61.56;100970.28;5072198;28;20447;-47
2022/09/14 00:42:26;;;;;;;4.90;2.45;;;;;;;15.77;61.48;100950.06;5079495;28;20059;-48
2022/09/14 00:45:07;;;;;;;3.50;1.40;;;;;;;15.78;61.46;100943.72;5070481;28;20396;-49
2022/09/14 00:47:39;;;;;;;3.78;1.65;;;;;;;15.82;61.35;100947.66;5072140;28;20210;-42
2022/09/14 00:50:14;;;;;;;4.07;1.65;;;;;;;15.91;61.40;100957.22;5072543;28;20475;-50
2022/09/14 00:52:49;;;;;;;10.90;2.13;;;;;;;15.85;61.47;100944.63;5076863;28;20593;-48
2022/09/14 00:55:23;;;;;;;2.60;1.30;;;;;;;15.93;61.44;100944.56;5069213;28;20047;-48
2022/09/14 00:58:06;;;;;;;11.05;1.95;;;;;;;15.90;61.34;100934.28;5069427;28;20054;-47
2022/09/14 01:00:39;;;;;;;5.25;1.65;;;;;;;15.90;61.40;100934.28;5070181;28;20395;-48
2022/09/14 01:03:12;;;;;;;7.32;1.98;;;;;;;16.01;61.33;100941.81;5071915;28;20043;-40
2022/09/14 01:05:56;;;;;;;;;;;;;;;16.02;61.22;100943.47;5069839;28;20367;-47
2022/09/14 01:08:47;;;;;;;;;;;;;;;15.96;61.38;100941.53;5069687;28;20367;-48
2022/09/14 01:11:39;;;;;;;5.10;1.20;;;;;;;15.95;61.24;100931.91;5078083;28;19993;-46
2022/09/14 01:18:07;;;;;;;3.70;1.40;;;;;;;15.92;61.31;100921.63;5069728;28;20071;-48
2022/09/14 01:20:44;;;;;;;4.80;1.40;;;;;;;15.93;61.26;100925.91;5069063;28;20450;-43
2022/09/14 01:23:24;;;;;;;10.43;1.70;;;;;;;15.81;61.52;100914.88;5068937;28;20038;-52
2022/09/14 01:30:15;;;;;;;4.65;1.65;;;;;;;15.81;61.53;100920.22;5082338;28;20443;-46
2022/09/14 01:32:55;;;;;;;5.80;1.58;;;;;;;15.77;61.61;100928.75;5065041;28;20491;-52
2022/09/14 01:35:33;;;;;;;9.27;2.28;;;;;;;15.66;61.54;100906.84;5071124;28;20138;-45
2022/09/14 01:38:11;;;;;;;3.28;1.38;;;;;;;15.68;61.64;100912.03;5072199;28;20503;-48
2022/09/14 01:40:48;;;;;;;6.38;1.52;;;;;;;15.68;61.67;100910.19;5067802;28;20504;-49
2022/09/14 01:43:25;;;;;;;5.53;1.20;;;;;;;15.75;61.57;100914.78;5073500;28;20058;-48
2022/09/14 01:46:04;;;;;;;2.65;1.27;;;;;;;15.72;61.62;100909.81;5073519;28;20063;-52
2022/09/14 01:48:41;;;;;;;4.93;1.83;;;;;;;15.70;61.53;100907.38;5081398;28;20424;-50
2022/09/14 01:51:19;;;;;;;3.25;1.27;;;;;;;15.74;61.76;100902.50;5065740;28;20211;-50
2022/09/14 01:53:58;;;;;;;3.35;1.40;;;;;;;15.70;61.60;100891.38;5074043;28;20623;-49
2022/09/14 01:56:35;;;;;;;5.40;1.98;;;;;;;15.65;61.57;100878.56;5071303;28;20546;-49
2022/09/14 01:59:13;;;;;;;4.63;1.42;;;;;;;15.78;61.60;100899.28;5078240;28;20061;-53
2022/09/14 02:01:52;;;;;;;1.58;1.00;;;;;;;15.67;61.47;100881.09;5075244;28;20039;-49
2022/09/14 02:04:31;;;;;;;6.70;1.40;;;;;;;15.69;61.62;100881.72;5090526;28;20050;-47
2022/09/14 02:07:04;;;;;;;3.63;1.50;;;;;;;15.71;61.50;100876.22;5090962;28;20046;-47
2022/09/14 02:09:37;;;;;;;1.15;1.00;;;;;;;15.71;61.36;100876.22;5090504;28;20451;-49
2022/09/14 02:12:09;;;;;;;;;;;;;;;15.78;61.64;100887.78;5092800;28;20043;-46
2022/09/14 02:14:43;;;;;;;2.50;1.00;;;;;;;15.71;61.61;100881.56;5089295;28;19926;-46
2022/09/14 02:17:18;;;;;;;6.32;1.70;;;;;;;15.66;61.50;100872.22;5084487;28;20047;-50
2022/09/14 02:19:56;;;;;;;6.50;2.17;;;;;;;15.71;61.53;100884.22;5075095;28;20340;-48
2022/09/14 02:22:31;;;;;;;5.00;1.73;;;;;;;15.66;61.52;100874.88;5092173;28;20062;-49
2022/09/14 02:25:04;;;;;;;4.88;1.80;;;;;;;15.63;61.39;100863.78;5092883;28;20042;-49
2022/09/14 02:27:37;;;;;;;8.15;1.92;;;;;;;15.71;61.72;100877.06;5090712;28;20047;-51
2022/09/14 02:30:11;;;;;;;4.10;1.60;;;;;;;15.65;61.66;100867.09;5087683;28;20043;-49
2022/09/14 02:33:13;;;;;;;6.22;1.50;;;;;;;15.68;61.62;100872.91;5061190;28;20043;-49
2022/09/14 02:35:49;;;;;;;5.40;1.80;;;;;;;15.72;61.68;100872.56;5049519;28;20476;-46
2022/09/14 02:38:30;;;;;;;4.68;1.50;;;;;;;15.72;61.63;100861.91;5048088;28;20089;-51
2022/09/14 02:41:11;;;;;;;7.63;2.03;;;;;;;15.71;61.79;100862.91;5052426;28;20075;-48
2022/09/14 02:43:50;;;;;;;9.20;1.42;;;;;;;15.64;61.69;100852.97;5049198;29;20039;-47
2022/09/14 02:46:33;;;;;;;5.18;1.45;;;;;;;15.68;61.82;100862.25;5053401;28;20047;-48
2022/09/14 02:49:16;;;;;;;6.97;1.47;;;;;;;15.64;61.90;100855.63;5049407;28;20043;-48
2022/09/14 02:51:56;;;;;;;11.43;1.73;;;;;;;15.57;61.99;100844.03;5046761;28;20052;-47
2022/09/14 02:54:33;;;;;;;6.35;1.50;;;;;;;15.61;62.07;100842.69;5048808;28;20082;-49
2022/09/14 02:57:06;;;;;;;5.35;1.80;;;;;;;15.61;61.93;100832.03;5052362;28;20055;-50
2022/09/14 02:59:39;;;;;;;6.70;1.45;;;;;;;15.59;61.96;100831.38;5046852;28;20295;-47
2022/09/14 03:02:12;;;;;;;6.15;1.40;;;;;;;15.70;61.87;100854.09;5049872;29;20043;-48
2022/09/14 03:04:46;;;;;;;4.63;1.70;;;;;;;15.61;61.89;100825.88;5048951;28;20071;-47
2022/09/14 03:07:18;;;;;;;10.95;1.80;;;;;;;15.65;61.81;100835.16;5029887;28;20052;-45
2022/09/14 03:09:51;;;;;;;3.78;1.63;;;;;;;15.72;61.81;100832.59;5032233;29;21132;-47
2022/09/14 03:12:23;;;;;;;5.38;1.90;;;;;;;15.70;61.85;100818.66;5041421;29;20531;-47
2022/09/14 03:14:56;;;;;;;5.35;2.10;;;;;;;15.64;61.83;100813.03;5030057;28;20056;-46
2022/09/14 03:17:28;;;;;;;8.07;2.30;;;;;;;15.61;61.76;100813.41;5033121;29;20083;-48
2022/09/14 03:20:03;;;;;;;5.93;2.00;;;;;;;15.63;61.83;100813.19;5036260;28;20067;-49
2022/09/14 03:22:36;;;;;;;4.80;1.52;;;;;;;15.61;61.87;100812.59;5033063;29;20444;-51
2022/09/14 03:25:09;;;;;;;12.75;1.63;;;;;;;15.61;61.96;100813.41;5045037;28;20154;-47
2022/09/14 03:27:42;;;;;;;4.57;1.83;;;;;;;15.68;61.90;100822.31;5029735;28;20472;-50
2022/09/14 03:30:15;;;;;;;4.18;1.55;;;;;;;15.73;62.00;100826.25;5033928;28;20048;-43
2022/09/14 03:32:49;;;;;;;9.30;1.77;;;;;;;15.60;62.03;100805.59;5071505;28;20359;-48
2022/09/14 03:35:23;;;;;;;6.60;2.05;;;;;;;15.64;62.18;100807.72;5070558;28;20407;-46
2022/09/14 03:37:56;;;;;;;6.55;2.05;;;;;;;15.62;62.00;100800.91;5070549;28;20052;-49
2022/09/14 03:40:29;;;;;;;2.75;1.60;;;;;;;15.63;62.05;100806.03;5066191;28;20039;-46
2022/09/14 03:43:01;;;;;;;4.43;2.08;;;;;;;15.61;62.18;100808.06;5071016;28;20700;-49
2022/09/14 03:45:36;;;;;;;4.13;2.00;;;;;;;15.65;62.05;100809.34;5061238;28;20048;-44
2022/09/14 03:48:10;;;;;;;2.72;1.35;;;;;;;15.68;62.03;100802.88;5068297;28;20210;-50
2022/09/14 03:50:44;;;;;;;8.25;2.00;;;;;;;15.74;61.93;100806.63;5066960;28;20035;-50
2022/09/14 03:53:30;;;;;;;4.05;1.95;;;;;;;15.73;62.13;100799.63;5079583;28;20416;-46
2022/09/14 03:56:08;;;;;;;4.68;1.75;;;;;;;15.71;62.11;100796.34;5084788;28;20399;-50
2022/09/14 03:58:41;;;;;;;5.40;1.52;;;;;;;15.62;62.33;100787.59;5077239;28;20114;-39
2022/09/14 04:01:17;;;;;;;1.73;1.17;;;;;;;15.71;62.22;100802.50;5074824;28;20397;-53
2022/09/14 04:03:50;;;;;;;4.80;2.35;;;;;;;15.68;62.10;100789.56;5075309;28;20236;-46
2022/09/14 04:06:25;;;;;;;2.75;1.33;;;;;;;15.71;62.17;100797.19;5075606;28;20143;-46
2022/09/14 04:08:58;;;;;;;6.35;2.03;;;;;;;15.74;62.06;100788.00;5066236;28;20203;-46
2022/09/14 04:11:32;;;;;;;9.55;2.03;;;;;;;15.72;62.20;100785.50;5079019;28;20130;-46
2022/09/14 04:14:07;;;;;;;6.72;1.92;;;;;;;15.75;62.17;100798.44;5064406;28;20174;-45
2022/09/14 04:16:40;;;;;;;6.80;2.17;;;;;;;15.74;62.03;100790.66;5079561;28;20066;-38
2022/09/14 04:19:13;;;;;;;9.32;1.67;;;;;;;15.65;62.01;100769.41;5075162;28;20039;-43
2022/09/14 04:21:47;;;;;;;3.33;1.40;;;;;;;15.71;62.14;100769.72;5076749;28;20068;-47
2022/09/14 04:24:20;;;;;;;4.85;1.58;;;;;;;15.61;62.12;100762.81;5077481;28;20063;-45
2022/09/14 04:26:52;;;;;;;12.45;2.67;;;;;;;15.70;62.14;100779.56;5084391;28;20436;-48
2022/09/14 04:29:25;;;;;;;3.92;1.77;;;;;;;15.77;62.03;100782.31;5075927;28;20090;-42
2022/09/14 04:31:58;;;;;;;2.03;1.60;;;;;;;15.73;61.94;100775.69;5075046;28;20065;-46
2022/09/14 04:34:30;;;;;;;6.20;2.25;;;;;;;15.70;62.14;100778.72;5076199;28;21685;-48
2022/09/14 04:37:04;;;;;;;3.35;1.42;;;;;;;15.67;62.01;100775.44;5073895;28;20499;-48
2022/09/14 04:39:37;;;;;;;4.32;1.20;;;;;;;15.72;62.03;100777.53;5073061;28;20043;-47
2022/09/14 04:42:10;;;;;;;6.28;2.33;;;;;;;15.77;61.94;100779.66;5074365;28;20376;-38
2022/09/14 04:44:43;;;;;;;6.78;1.60;;;;;;;15.74;62.07;100775.50;5077844;28;20047;-47
2022/09/14 04:47:15;;;;;;;4.00;1.48;;;;;;;15.75;61.92;100781.66;5078810;28;20042;-49
2022/09/14 04:49:48;;;;;;;6.85;2.03;;;;;;;15.77;62.09;100775.13;5085362;28;20392;-47
2022/09/14 04:52:23;;;;;;;4.32;1.48;;;;;;;15.79;61.87;100783.75;5091692;28;20054;-45
2022/09/14 04:54:56;;;;;;;3.33;1.50;;;;;;;15.70;61.74;100768.06;5073478;28;20551;-45
2022/09/14 04:57:28;;;;;;;9.73;1.83;;;;;;;15.76;61.80;100773.47;5080281;28;20046;-45
2022/09/14 05:00:01;;;;;;;1.98;1.27;;;;;;;15.74;61.82;100774.69;5074617;28;20055;-49
2022/09/14 05:02:34;;;;;;;4.80;2.25;;;;;;;15.80;61.71;100779.28;5084964;28;20043;-45
2022/09/14 05:05:07;;;;;;;3.55;1.35;;;;;;;15.76;61.81;100772.66;5076057;28;20500;-49
2022/09/14 05:07:41;;;;;;;5.00;1.63;;;;;;;15.76;61.68;100772.66;5087398;28;20066;-40
2022/09/14 05:10:14;;;;;;;6.43;1.80;;;;;;;15.73;61.77;100765.84;5092715;28;20043;-46
2022/09/14 05:12:47;;;;;;;4.55;1.63;;;;;;;15.76;61.67;100769.97;5094872;28;20042;-46
2022/09/14 05:15:22;;;;;;;5.07;1.50;;;;;;;15.78;61.66;100771.44;5085699;28;20069;-48
2022/09/14 05:17:55;;;;;;;6.55;1.70;;;;;;;15.75;61.74;100761.16;5090446;28;20050;-46
2022/09/14 05:20:27;;;;;;;4.95;1.65;;;;;;;15.73;61.70;100762.38;5072350;28;20043;-46
2022/09/14 05:23:01;;;;;;;4.85;1.80;;;;;;;15.64;61.77;100759.78;5083756;28;20515;-47
2022/09/14 05:25:34;;;;;;;6.68;1.88;;;;;;;15.67;61.72;100770.09;5072531;28;20054;-47
2022/09/14 05:28:07;;;;;;;5.60;1.80;;;;;;;15.72;61.78;100772.19;5074715;28;20486;-47
2022/09/14 05:30:40;;;;;;;3.50;1.70;;;;;;;15.78;61.69;100778.63;5082479;28;20491;-47
2022/09/14 05:33:13;;;;;;;3.83;1.77;;;;;;;15.81;61.58;100770.25;5087541;28;20327;-46
2022/09/14 05:35:46;;;;;;;7.47;2.00;;;;;;;15.81;61.70;100772.94;5078721;28;20439;-48
2022/09/14 05:38:20;;;;;;;7.43;1.90;;;;;;;15.87;61.44;100766.84;5074467;28;20081;-49
2022/09/14 05:40:55;;;;;;;3.78;1.98;;;;;;;15.83;61.48;100752.28;5074337;28;20047;-47
2022/09/14 05:43:29;;;;;;;3.80;1.73;;;;;;;15.85;61.54;100747.56;5089739;28;20097;-47
2022/09/14 05:46:03;;;;;;;6.93;2.00;;;;;;;15.94;61.58;100749.09;5094103;28;20058;-44
2022/09/14 05:48:38;;;;;;;8.77;2.60;;;;;;;16.03;61.59;100763.97;5086759;28;20074;-48
2022/09/14 05:51:14;;;;;;;7.53;2.75;;;;;;;15.95;61.37;100745.44;5089395;28;20455;-36
2022/09/14 05:53:50;;;;;;;7.18;2.60;;;;;;;16.05;61.27;100751.28;5090289;28;20434;-49
2022/09/14 05:56:26;;;;;;;5.10;2.05;;;;;;;16.02;61.25;100748.19;5089580;28;20491;-50
2022/09/14 05:58:59;;;;;;;7.13;3.22;;;;;;;16.08;61.48;100750.91;5088521;28;20050;-48
2022/09/14 06:01:32;;;;;;;10.20;3.35;;;;;;;16.08;61.35;100750.91;5082977;28;20054;-49
2022/09/14 06:04:05;;;;;;;5.78;2.08;;;;;;;16.12;61.21;100757.50;5085926;28;20049;-48
2022/09/14 06:06:38;;;;;;;5.28;2.92;;;;;;;16.20;61.32;100758.44;5081465;28;20047;-49
2022/09/14 06:09:12;;;;;;;5.72;2.70;;;;;;;16.19;61.25;100754.09;5090293;28;20078;-37
2022/09/14 06:11:44;;;;;;;5.82;1.65;;;;;;;16.21;61.02;100752.09;5091505;28;20050;-45
2022/09/14 06:14:18;;;;;;;8.60;2.90;;;;;;;16.30;60.99;100758.94;5087905;28;20043;-49
2022/09/14 06:16:51;;;;;;;11.32;3.13;;;;;;;16.31;60.93;100756.06;5093074;28;20066;-49
2022/09/14 06:19:24;;;;;;;6.15;2.10;;;;;;;16.38;60.99;100761.47;5092459;28;20125;-47
2022/09/14 06:21:56;;;;;;;8.25;2.15;;;;;;;16.46;60.87;100764.03;5086936;28;20051;-49
2022/09/14 06:24:30;;;;;;;4.18;1.83;;;;;;;16.54;60.88;100769.25;5083972;28;20431;-44
2022/09/14 06:27:03;;;;;;;7.20;2.40;;;;;;;16.58;60.85;100761.69;5087827;28;20145;-49
2022/09/14 06:29:36;;;;;;;7.60;3.90;;;;;;;16.65;60.70;100767.06;5084106;28;20400;-50
2022/09/14 06:32:09;;;;;;;8.25;2.47;;;;;;;16.71;60.43;100759.13;5089352;28;20054;-51
2022/09/14 06:34:41;;;;;;;;;;;;;;;16.81;60.60;100756.16;5086367;28;20383;-44
2022/09/14 06:37:14;;;;;;;7.47;2.63;;;;;;;16.78;60.57;100743.22;5090490;28;20331;-47
2022/09/14 06:39:48;;;;;;;9.48;2.50;;;;;;;16.88;60.38;100748.19;5089931;28;20061;-49
2022/09/14 06:42:21;;;;;;;6.70;2.20;;;;;;;17.05;60.36;100747.72;5089704;28;20411;-49
2022/09/14 06:44:53;;;;;;;7.53;2.50;;;;;;;17.18;60.19;100754.19;5092606;28;20042;-47
2022/09/14 06:47:31;;;;;;;5.85;2.17;;;;;;;17.29;59.92;100751.78;5091694;28;20047;-50
2022/09/14 06:50:04;;;;;;;4.55;2.17;;;;;;;17.32;60.08;100733.75;5091140;28;20047;-47
2022/09/14 06:52:36;;;;;;;;;;;;;;;17.45;59.91;100745.31;5091973;28;20050;-48
2022/09/14 06:55:11;;;;;;;7.18;2.00;;;;;;;17.40;59.81;100739.72;5090508;28;20057;-51
2022/09/14 06:57:43;;;;;;;9.15;2.10;;;;;;;17.49;60.04;100753.75;5085006;28;20440;-49
2022/09/14 07:00:18;;;;;;;10.63;2.17;;;;;;;17.58;59.83;100762.44;5074524;28;20110;-49
2022/09/14 07:02:50;;;;;;;4.47;1.90;;;;;;;17.55;59.75;100750.28;5069172;28;20043;-49
2022/09/14 07:05:23;;;;;;;9.60;1.85;;;;;;;17.63;59.76;100760.00;5068785;28;20051;-46
2022/09/14 07:07:56;;;;;;;;;;;;;;;17.73;59.93;100761.25;5069953;28;20362;-49
2022/09/14 07:10:30;;;;;;;8.63;1.92;;;;;;;17.72;59.89;100756.97;5071436;28;19922;-50
2022/09/14 07:13:03;;;;;;;5.40;1.50;;;;;;;17.75;60.15;100755.75;5087834;28;21124;-51
2022/09/14 07:15:35;;;;;;;10.52;2.05;;;;;;;17.81;59.63;100756.81;5068259;28;20047;-52
2022/09/14 07:18:08;;;;;;;6.55;1.60;;;;;;;17.83;59.57;100749.41;5087295;28;20141;-48
2022/09/14 07:20:41;;;;;;;10.02;2.63;;;;;;;17.87;59.76;100751.50;5085747;28;20398;-38
2022/09/14 07:23:13;;;;;;;6.43;1.75;;;;;;;18.02;59.69;100761.19;5080495;28;20052;-52
2022/09/14 07:25:48;;;;;;;13.13;2.53;;;;;;;18.12;59.32;100759.00;5083375;28;20442;-50
2022/09/14 07:28:20;;;;;;;9.80;2.15;;;;;;;18.24;59.18;100768.06;5091192;28;20055;-52
2022/09/14 07:30:53;;;;;;;11.93;2.03;;;;;;;18.34;59.05;100757.81;5080129;28;20051;-47
2022/09/14 07:33:26;;;;;;;4.53;1.90;;;;;;;18.47;59.05;100764.22;5087884;28;20442;-49
2022/09/14 07:36:06;;;;;;;5.28;2.30;;;;;;;18.53;58.68;100755.38;5088024;28;20407;-49
2022/09/14 07:38:39;;;;;;;6.30;1.65;;;;;;;18.55;58.82;100750.63;5090121;28;20065;-48
2022/09/14 07:41:14;;;;;;;6.13;1.23;;;;;;;18.57;58.57;100741.38;5082170;28;20046;-48
2022/09/14 07:43:50;;;;;;;4.00;1.83;;;;;;;18.80;58.22;100758.91;5090965;28;20439;-48
2022/09/14 07:46:23;;;;;;;6.35;2.45;;;;;;;18.97;57.97;100752.09;5077057;28;20073;-51
2022/09/14 07:48:59;;;;;;;3.05;1.00;;;;;;;19.39;57.54;100759.84;5087603;28;20082;-50
2022/09/14 07:51:33;;;;;;;7.07;1.70;;;;;;;19.55;57.36;100762.09;5088776;28;20102;-47
2022/09/14 07:54:09;;;;;;;6.70;1.38;;;;;;;19.70;56.83;100765.38;5081341;28;20385;-50
2022/09/14 07:56:44;;;;;;;5.30;1.40;;;;;;;19.99;56.60;100763.19;5077662;28;20039;-50
2022/09/14 07:59:17;;;;;;;6.03;1.25;;;;;;;20.18;56.18;100753.41;5088306;28;20057;-47
2022/09/14 08:01:50;;;;;;;11.73;3.33;;;;;;;20.55;55.73;100743.69;5089331;28;20068;-53
2022/09/14 08:04:22;;;;;;;;;;;;;;;20.76;55.22;100755.91;5089532;28;20511;-49
2022/09/14 08:06:55;;;;;;;7.00;1.50;;;;;;;20.71;54.99;100761.94;5091132;28;19922;-48
2022/09/14 08:09:28;;;;;;;6.32;1.27;;;;;;;20.53;54.97;100739.56;5077121;28;20364;-49
2022/09/14 08:12:04;;;;;;;6.43;1.58;;;;;;;20.35;54.98;100743.81;5083478;28;20607;-51
2022/09/14 08:14:37;;;;;;;9.75;2.08;;;;;;;20.27;55.16;100755.59;5089370;28;20046;-51
2022/09/14 08:17:10;;;;;;;9.05;1.83;;;;;;;20.24;55.25;100753.34;5089781;28;20050;-49
2022/09/14 08:19:43;;;;;;;6.43;1.23;;;;;;;20.17;55.15;100741.84;5086064;28;20456;-47
2022/09/14 08:22:15;;;;;;;6.13;1.10;;;;;;;20.25;55.12;100749.66;5078335;28;20346;-49
2022/09/14 08:24:48;;;;;;;6.45;1.77;;;;;;;20.13;55.13;100735.28;5089649;28;20043;-49
2022/09/14 08:27:22;;;;;;;4.60;1.70;;;;;;;20.10;55.11;100725.00;5091500;28;20043;-47
2022/09/14 08:29:55;;;;;;;3.75;1.15;;;;;;;20.14;55.19;100725.38;5078305;28;20057;-50
2022/09/14 08:32:27;;;;;;;4.18;1.48;;;;;;;20.32;55.07;100740.75;5087624;28;20062;-47
2022/09/14 08:35:01;;;;;;;8.57;2.08;;;;;;;20.60;54.51;100730.44;5076784;28;20086;-48
2022/09/14 08:37:33;;;;;;;7.55;1.60;;;;;;;20.67;53.93;100730.41;5086653;28;20078;-52
2022/09/14 08:40:09;;;;;;;6.65;1.50;;;;;;;20.68;53.91;100722.13;5092883;28;20065;-50
2022/09/14 08:42:44;;;;;;;5.78;1.05;;;;;;;20.69;54.03;100729.16;5082252;28;20142;-44
2022/09/14 08:45:17;;;;;;;8.65;1.33;;;;;;;20.76;53.99;100717.53;5075810;28;20046;-53
2022/09/14 08:47:51;;;;;;;5.00;1.30;;;;;;;21.01;53.80;100726.38;5074504;28;20083;-50
2022/09/14 08:50:24;;;;;;;4.55;1.33;;;;;;;21.07;53.35;100725.50;5075168;28;20050;-52
2022/09/14 08:53:00;;;;;;;5.50;1.80;;;;;;;21.08;53.54;100721.75;5072713;28;20431;-49
2022/09/14 08:55:39;;;;;;;4.63;1.27;;;;;;;21.07;53.61;100722.81;5073581;28;20115;-51
2022/09/14 08:58:30;;;;;;;5.25;2.00;;;;;;;21.12;53.51;100727.50;5074035;28;20105;-48
2022/09/14 09:01:12;;;;;;;3.47;0.90;;;;;;;20.96;52.94;100739.63;5075578;28;20054;-48
2022/09/14 09:04:10;;;;;;;5.32;0.88;;;;;;;20.80;53.30;100718.72;5069528;28;20051;-45
2022/09/14 09:06:51;;;;;;;15.05;1.95;;;;;;;20.89;53.25;100723.59;5080658;28;20043;-47
2022/09/14 09:09:31;;;;;;;8.77;1.85;;;;;;;20.84;53.16;100714.56;5090778;28;20387;-50
2022/09/14 09:12:05;;;;;;;8.95;1.35;;;;;;;20.77;53.26;100729.91;5077943;28;20051;-50
2022/09/14 09:14:43;;;;;;;5.78;1.23;;;;;;;20.71;53.00;100721.66;5076449;28;20051;-51
2022/09/14 09:17:21;;;;;;;6.40;1.23;;;;;;;20.87;52.99;100732.91;5074788;28;20042;-51
2022/09/14 09:20:04;;;;;;;5.82;1.50;;;;;;;20.88;52.85;100724.63;5072854;28;20043;-50
2022/09/14 09:22:42;;;;;;;6.72;1.50;;;;;;;21.25;52.63;100735.44;5072129;28;20337;-47
2022/09/14 09:25:22;;;;;;;4.30;1.13;;;;;;;21.49;52.32;100722.16;5067648;28;20073;-53
2022/09/14 09:27:57;;;;;;;2.80;1.27;;;;;;;21.49;52.00;100712.25;5077376;28;20364;-50
2022/09/14 09:30:32;;;;;;;11.15;2.58;;;;;;;21.29;51.68;100738.50;5071655;28;20379;-49
2022/09/14 09:33:05;;;;;;;6.45;1.40;;;;;;;21.11;52.07;100731.22;5069284;28;20415;-49
2022/09/14 09:35:37;;;;;;;8.23;1.17;;;;;;;21.12;51.58;100733.72;5069827;28;20043;-49
2022/09/14 09:38:16;;;;;;;5.28;1.40;;;;;;;21.15;50.76;100732.41;5062066;28;20381;-48
2022/09/14 09:40:54;;;;;;;5.78;1.73;;;;;;;21.07;50.73;100732.72;5064369;28;20065;-50
2022/09/14 09:43:27;;;;;;;13.15;1.73;;;;;;;21.17;50.61;100725.78;5070212;28;20051;-54
2022/09/14 09:46:03;;;;;;;8.90;2.00;;;;;;;21.19;50.13;100720.22;5072820;28;20198;-51
2022/09/14 09:48:43;;;;;;;8.05;2.03;;;;;;;21.10;49.97;100719.69;5071852;28;20452;-52
2022/09/14 09:51:18;;;;;;;8.70;1.65;;;;;;;21.15;49.99;100722.53;5069484;28;20431;-48
2022/09/14 09:53:55;;;;;;;8.55;1.33;;;;;;;21.39;49.82;100711.94;5072167;28;20090;-48
2022/09/14 09:56:33;;;;;;;10.75;1.60;;;;;;;21.52;49.45;100711.78;5063802;28;20060;-50
2022/09/14 09:59:27;;;;;;;4.65;1.55;;;;;;;21.55;49.47;100705.16;5060884;28;20658;-50
2022/09/14 13:34:31;;;;;;;5.78;1.67;;;;;;;23.04;45.04;100620.91;5198604;27;20432;-52
2022/09/14 13:37:05;;;;;;;6.80;1.20;;;;;;;22.96;45.08;100614.81;5175446;28;20095;-52
2022/09/14 13:39:40;;;;;;;6.10;1.45;;;;;;;22.87;45.17;100629.69;5183632;28;20509;-55
2022/09/14 13:42:14;;;;;;;2.92;1.13;;;;;;;22.67;45.43;100615.75;5164899;28;20056;-49
2022/09/14 13:44:48;;;;;;;1.77;0.73;;;;;;;22.55;45.35;100623.84;5182451;28;20513;-47
2022/09/14 13:47:23;;;;;;;5.90;1.75;;;;;;;22.33;45.54;100615.53;5185180;28;20362;-49
2022/09/14 13:49:59;;;;;;;3.67;1.00;;;;;;;22.44;45.68;100621.97;5176129;28;20559;-54
2022/09/14 13:52:37;;;;;;;12.85;1.80;;;;;;;22.70;45.70;100620.66;5183853;28;21969;-49
2022/09/14 13:55:28;;;;;;;4.05;1.20;;;;;;;22.98;45.59;100615.41;5175153;28;20049;-49
2022/09/14 13:58:23;;;;;;;11.65;1.52;;;;;;;23.39;45.78;100608.16;5180667;28;20405;-53
2022/09/14 14:00:59;;;;;;;8.77;1.67;;;;;;;23.58;45.17;100607.97;5180381;28;20043;-54
2022/09/14 14:03:38;;;;;;;3.97;1.35;;;;;;;23.72;45.09;100597.72;5181253;28;21496;-52
2022/09/14 14:06:28;;;;;;;3.95;1.17;;;;;;;23.84;45.35;100599.28;5182106;28;20053;-52
2022/09/14 14:09:04;;;;;;;3.78;1.00;;;;;;;23.89;45.89;100591.28;5173028;28;20178;-44
2022/09/14 14:11:39;;;;;;;10.70;1.35;;;;;;;23.99;46.15;100595.22;5179964;28;20550;-53
2022/09/14 14:14:20;;;;;;;2.38;0.73;;;;;;;24.07;46.07;100597.50;5179136;28;20053;-51
2022/09/14 14:17:25;;;;;;;8.05;1.52;;;;;;;24.12;45.63;100595.69;5180298;28;20425;-51
2022/09/14 14:20:20;;;;;;;4.40;1.15;;;;;;;23.87;45.73;100585.31;5183185;28;20453;-51
2022/09/14 14:23:00;;;;;;;6.90;1.60;;;;;;;23.57;45.74;100582.03;5178290;28;20064;-54
2022/09/14 14:25:37;;;;;;;3.03;1.10;;;;;;;23.62;45.84;100595.63;5182185;28;20147;-51
2022/09/14 14:28:18;;;;;;;5.50;1.30;;;;;;;23.56;46.18;100585.81;5183182;28;20478;-53
2022/09/14 14:30:52;;;;;;;2.78;1.08;;;;;;;23.41;45.64;100581.78;5179319;28;20041;-55
2022/09/14 14:33:25;;;;;;;10.63;2.13;;;;;;;23.16;45.65;100586.66;5180317;28;20048;-54
2022/09/14 14:35:58;;;;;;;4.03;1.15;;;;;;;22.87;45.75;100573.13;5178773;28;20508;-52
2022/09/14 14:38:32;;;;;;;6.10;1.33;;;;;;;22.82;46.16;100591.03;5175716;28;20045;-50
2022/09/14 14:41:05;;;;;;;10.32;1.25;;;;;;;22.90;46.18;100580.72;5180668;28;20660;-52
2022/09/14 14:43:37;;;;;;;;;;;;;;;22.88;45.76;100595.50;5181718;28;20435;-52
2022/09/14 14:46:10;;;;;;;2.80;1.17;;;;;;;22.63;46.20;100579.59;5165247;28;20007;-51
2022/09/14 14:48:43;;;;;;;9.60;1.90;;;;;;;22.58;46.45;100590.25;5163239;28;20477;-53
2022/09/14 14:51:16;;;;;;;9.95;1.60;;;;;;;22.58;47.02;100585.72;5167771;28;20048;-43
2022/09/14 14:53:50;;;;;;;4.68;1.23;;;;;;;22.57;47.38;100578.66;5162969;28;20163;-54
2022/09/14 14:56:22;;;;;;;1.88;1.08;;;;;;;22.36;47.00;100585.47;5166012;28;20060;-54
2022/09/14 14:58:55;;;;;;;2.95;1.08;;;;;;;22.27;47.24;100578.81;5167192;28;20134;-53
2022/09/14 15:01:28;;;;;;;8.75;1.88;;;;;;;22.26;46.82;100587.91;5170683;28;20355;-53
2022/09/14 15:04:00;;;;;;;7.82;1.05;;;;;;;21.97;47.21;100585.06;5160848;28;20144;-49
2022/09/14 15:06:33;;;;;;;6.18;0.90;;;;;;;21.82;47.61;100587.34;5165783;28;20119;-49
2022/09/14 15:09:15;;;;;;;10.63;2.80;;;;;;;21.91;47.31;100585.97;5165958;28;20546;-52
2022/09/14 15:11:49;;;;;;;3.10;1.37;;;;;;;22.07;47.50;100590.66;5168251;28;20449;-52
2022/09/14 15:14:24;;;;;;;10.73;2.08;;;;;;;22.14;47.73;100585.19;5160850;28;20046;-54
2022/09/14 15:16:58;;;;;;;8.38;1.33;;;;;;;22.16;47.36;100576.91;5168801;28;20072;-52
2022/09/14 15:19:31;;;;;;;15.18;2.00;;;;;;;22.05;47.36;100579.34;5170428;28;20207;-43
2022/09/14 15:22:03;;;;;;;4.45;1.20;;;;;;;21.98;47.99;100575.09;5170567;28;20053;-53
2022/09/14 15:24:38;;;;;;;11.38;2.08;;;;;;;22.07;47.56;100596.06;5156186;28;20045;-54
2022/09/14 15:27:10;;;;;;;6.13;1.15;;;;;;;21.91;47.82;100591.34;5168793;28;20461;-53
2022/09/14 15:29:43;;;;;;;4.50;1.75;;;;;;;21.90;47.89;100587.03;5165366;28;20071;-50
2022/09/14 15:32:16;;;;;;;7.57;1.35;;;;;;;21.80;48.10;100581.38;5169442;28;20492;-49
2022/09/14 15:34:48;;;;;;;8.15;1.10;;;;;;;21.75;48.20;100583.97;5171014;28;20485;-50
2022/09/14 15:37:21;;;;;;;5.32;1.25;;;;;;;21.66;48.38;100588.84;5171098;28;20084;-55
2022/09/14 15:39:55;;;;;;;5.93;1.02;;;;;;;21.48;48.84;100587.00;5172061;28;20114;-53
2022/09/14 15:42:27;;;;;;;6.03;1.65;;;;;;;21.38;48.90;100582.19;5171221;28;20052;-52
2022/09/14 15:45:00;;;;;;;6.32;1.08;;;;;;;21.32;48.98;100576.88;5168556;28;20052;-53